createdAt,value
2022-12-23T00:00:06.123Z,6.5
2022-12-23T00:01:05.597Z,6.4
2022-12-23T00:02:06.590Z,6.4
2022-12-23T00:03:06.528Z,6.4
2022-12-23T00:04:06.608Z,6.4
2022-12-23T00:05:05.950Z,7
2022-12-23T00:06:06.477Z,7
2022-12-23T00:07:05.835Z,6.4
2022-12-23T00:08:06.189Z,6.4
2022-12-23T00:09:05.790Z,6.4
2022-12-23T00:10:05.857Z,6.4
2022-12-23T00:11:06.331Z,6.4
2022-12-23T00:12:06.100Z,6.4
2022-12-23T00:13:06.457Z,6.4
2022-12-23T00:14:06.040Z,6.4
2022-12-23T00:15:05.842Z,6.4
2022-12-23T00:16:06.668Z,6.4
2022-12-23T00:17:21.861Z,6.4
2022-12-23T00:18:06.590Z,6.4
2022-12-23T00:19:05.934Z,6.4
2022-12-23T00:20:05.699Z,6.4
2022-12-23T00:21:12.498Z,6.4
2022-12-23T00:22:06.205Z,6.4
2022-12-23T00:23:05.809Z,6.4
2022-12-23T00:24:05.708Z,6.4
2022-12-23T00:25:05.886Z,6.4
2022-12-23T00:26:06.431Z,6.4
2022-12-23T00:27:06.249Z,6.4
2022-12-23T00:28:05.848Z,6.4
2022-12-23T00:29:06.504Z,6.4
2022-12-23T00:30:06.480Z,6.4
2022-12-23T00:31:06.391Z,6.4
2022-12-23T00:32:06.169Z,6.3
2022-12-23T00:33:06.024Z,6.3
2022-12-23T00:34:05.727Z,6.3
2022-12-23T00:35:05.478Z,6.3
2022-12-23T00:36:04.761Z,6.3
2022-12-23T00:37:06.117Z,6.3
2022-12-23T00:38:05.669Z,6.3
2022-12-23T00:39:06.084Z,6.3
2022-12-23T00:40:10.936Z,6.3
2022-12-23T00:41:06.470Z,6.3
2022-12-23T00:42:06.047Z,7
2022-12-23T00:43:05.542Z,6.2
2022-12-23T00:44:06.195Z,6.2
2022-12-23T00:45:05.659Z,6.2
2022-12-23T00:46:06.746Z,6.2
2022-12-23T00:47:06.097Z,6.2
2022-12-23T00:48:06.403Z,6.2
2022-12-23T00:49:06.428Z,6.1
2022-12-23T00:50:05.902Z,6.1
2022-12-23T00:51:05.833Z,6
2022-12-23T00:52:06.163Z,6
2022-12-23T00:53:06.356Z,6
2022-12-23T00:54:05.845Z,6
2022-12-23T00:55:06.458Z,6.1
2022-12-23T00:56:05.857Z,6.1
2022-12-23T00:57:06.437Z,6.1
2022-12-23T00:58:05.984Z,6.1
2022-12-23T00:59:05.761Z,6.2
2022-12-23T01:00:06.200Z,6.2
2022-12-23T01:01:06.697Z,6.2
2022-12-23T01:02:07.210Z,6.2
2022-12-23T01:03:06.260Z,6.3
2022-12-23T01:04:06.368Z,7
2022-12-23T01:05:06.646Z,7
2022-12-23T01:06:06.659Z,7
2022-12-23T01:07:06.324Z,7
2022-12-23T01:08:06.444Z,6.4
2022-12-23T01:09:05.730Z,6.4
2022-12-23T01:10:06.258Z,6.4
2022-12-23T01:11:06.253Z,6.4
2022-12-23T01:12:05.818Z,6.4
2022-12-23T01:13:05.795Z,6.4
2022-12-23T01:14:06.492Z,6.5
2022-12-23T01:15:05.824Z,6.4
2022-12-23T01:16:05.050Z,6.5
2022-12-23T01:17:06.761Z,6.5
2022-12-23T01:18:06.084Z,6.5
2022-12-23T01:19:06.098Z,6.5
2022-12-23T01:20:05.679Z,6.6
2022-12-23T01:21:06.207Z,6.6
2022-12-23T01:22:05.830Z,6.6
2022-12-23T01:23:06.234Z,6.6
2022-12-23T01:24:05.737Z,6.6
2022-12-23T01:25:06.234Z,6.6
2022-12-23T01:26:05.759Z,6.6
2022-12-23T01:27:06.261Z,6.6
2022-12-23T01:28:05.333Z,6.6
2022-12-23T01:29:05.362Z,6.6
2022-12-23T01:30:05.925Z,6.6
2022-12-23T01:31:05.687Z,6.6
2022-12-23T01:32:06.096Z,6.6
2022-12-23T01:33:06.735Z,6.6
2022-12-23T01:34:06.094Z,6.7
2022-12-23T01:35:05.805Z,6.7
2022-12-23T01:36:06.526Z,6.7
2022-12-23T01:37:05.922Z,6.7
2022-12-23T01:38:06.358Z,7
2022-12-23T01:39:05.892Z,7
2022-12-23T01:40:06.416Z,7
2022-12-23T01:41:06.457Z,6.6
2022-12-23T01:42:05.957Z,6.6
2022-12-23T01:43:05.666Z,6.6
2022-12-23T01:44:06.336Z,6.6
2022-12-23T01:45:05.819Z,6.6
2022-12-23T01:46:06.646Z,6.6
2022-12-23T01:47:05.937Z,6.7
2022-12-23T01:48:05.377Z,6.7
2022-12-23T01:49:05.738Z,7
2022-12-23T01:50:06.238Z,6.7
2022-12-23T01:51:05.752Z,6.7
2022-12-23T01:52:06.193Z,6.7
2022-12-23T01:53:11.584Z,7
2022-12-23T01:54:06.180Z,6.7
2022-12-23T01:55:05.689Z,6.7
2022-12-23T01:56:06.302Z,6.8
2022-12-23T01:57:06.606Z,6.8
2022-12-23T01:58:05.532Z,6.8
2022-12-23T01:59:06.169Z,6.8
2022-12-23T02:00:05.638Z,6.8
2022-12-23T02:01:05.848Z,6.8
2022-12-23T02:02:06.799Z,6.8
2022-12-23T02:04:25.989Z,6.8
2022-12-23T02:05:06.466Z,6.8
2022-12-23T02:06:06.117Z,6.8
2022-12-23T02:07:05.725Z,6.8
2022-12-23T02:08:06.173Z,6.8
2022-12-23T02:09:05.734Z,6.8
2022-12-23T02:10:05.991Z,6.8
2022-12-23T02:11:05.789Z,6.8
2022-12-23T02:12:06.154Z,6.8
2022-12-23T02:13:06.220Z,6.8
2022-12-23T02:14:05.634Z,6.8
2022-12-23T02:15:05.819Z,6.8
2022-12-23T02:16:06.385Z,6.8
2022-12-23T02:17:06.542Z,6.8
2022-12-23T02:18:05.927Z,6.8
2022-12-23T02:19:06.402Z,6.8
2022-12-23T02:20:05.951Z,6.8
2022-12-23T02:21:05.998Z,6.9
2022-12-23T02:22:04.903Z,6.9
2022-12-23T02:23:05.826Z,6.9
2022-12-23T02:24:06.351Z,7
2022-12-23T02:25:05.761Z,7
2022-12-23T02:26:06.061Z,6.9
2022-12-23T02:27:06.630Z,7
2022-12-23T02:28:05.904Z,7
2022-12-23T02:29:06.421Z,6.9
2022-12-23T02:30:06.062Z,6.9
2022-12-23T02:31:06.582Z,6.9
2022-12-23T02:32:05.804Z,6.9
2022-12-23T02:33:05.200Z,6.9
2022-12-23T02:34:05.877Z,6.9
2022-12-23T02:35:05.697Z,6.9
2022-12-23T02:36:06.256Z,6.9
2022-12-23T02:37:05.882Z,6.9
2022-12-23T02:38:06.458Z,6.9
2022-12-23T02:39:05.643Z,6.9
2022-12-23T02:40:06.093Z,7
2022-12-23T02:41:05.742Z,7
2022-12-23T02:42:06.255Z,7
2022-12-23T02:43:05.757Z,7
2022-12-23T02:44:06.179Z,7
2022-12-23T02:45:05.816Z,7
2022-12-23T02:46:05.880Z,7
2022-12-23T02:47:06.114Z,7
2022-12-23T02:48:06.047Z,7
2022-12-23T02:49:06.160Z,7
2022-12-23T02:50:06.184Z,7
2022-12-23T02:51:05.515Z,7
2022-12-23T02:52:06.348Z,7
2022-12-23T02:53:06.383Z,7
2022-12-23T02:54:06.035Z,7
2022-12-23T02:55:05.588Z,7
2022-12-23T02:56:05.945Z,7
2022-12-23T02:57:05.768Z,7
2022-12-23T02:58:06.306Z,7
2022-12-23T02:59:06.332Z,7
2022-12-23T03:00:06.050Z,7
2022-12-23T03:01:06.597Z,7
2022-12-23T03:02:06.288Z,7
2022-12-23T03:03:06.932Z,7
2022-12-23T03:04:08.661Z,7.1
2022-12-23T03:05:06.606Z,7.1
2022-12-23T03:06:06.135Z,7.1
2022-12-23T03:07:18.581Z,7.1
2022-12-23T03:08:05.713Z,7.1
2022-12-23T03:09:06.207Z,7.1
2022-12-23T03:10:05.643Z,7.1
2022-12-23T03:11:06.048Z,7.1
2022-12-23T03:12:05.641Z,7
2022-12-23T03:13:06.206Z,7
2022-12-23T03:14:05.756Z,7.1
2022-12-23T03:15:06.173Z,7.1
2022-12-23T03:16:06.498Z,7.1
2022-12-23T03:17:06.118Z,7.1
2022-12-23T03:18:05.647Z,7.1
2022-12-23T03:19:06.315Z,7.1
2022-12-23T03:20:05.887Z,7.1
2022-12-23T03:21:05.559Z,7.1
2022-12-23T03:22:06.191Z,7.1
2022-12-23T03:23:05.767Z,7.1
2022-12-23T03:24:06.396Z,7
2022-12-23T03:25:05.492Z,7.1
2022-12-23T03:26:06.104Z,7.1
2022-12-23T03:27:06.168Z,7.1
2022-12-23T03:28:06.401Z,7.1
2022-12-23T03:29:06.281Z,7.1
2022-12-23T03:30:05.918Z,7.2
2022-12-23T03:31:05.913Z,7.2
2022-12-23T03:32:06.281Z,7.2
2022-12-23T03:33:05.853Z,7.2
2022-12-23T03:34:05.367Z,8
2022-12-23T03:35:05.851Z,7.2
2022-12-23T03:36:05.588Z,7.2
2022-12-23T03:37:06.131Z,7.2
2022-12-23T03:38:05.535Z,8
2022-12-23T03:39:06.299Z,8
2022-12-23T03:40:06.599Z,7.2
2022-12-23T03:41:06.159Z,7.2
2022-12-23T03:42:05.754Z,7.2
2022-12-23T03:43:06.343Z,7.2
2022-12-23T03:44:06.342Z,7.2
2022-12-23T03:45:43.179Z,7.2
2022-12-23T03:47:05.869Z,8
2022-12-23T03:48:06.299Z,7.2
2022-12-23T03:49:06.601Z,7.2
2022-12-23T03:50:06.037Z,7
2022-12-23T03:51:06.006Z,7.2
2022-12-23T03:52:06.200Z,7.2
2022-12-23T03:53:05.718Z,7.2
2022-12-23T03:54:06.455Z,7.2
2022-12-23T03:55:05.699Z,7.2
2022-12-23T03:56:06.037Z,7.2
2022-12-23T03:57:06.262Z,7.2
2022-12-23T03:58:06.127Z,7.2
2022-12-23T03:59:06.473Z,7.2
2022-12-23T04:00:05.702Z,7.2
2022-12-23T04:01:06.038Z,7.2
2022-12-23T04:02:06.907Z,7.2
2022-12-23T04:03:06.166Z,7.2
2022-12-23T04:04:06.760Z,7.2
2022-12-23T04:05:06.316Z,7.2
2022-12-23T04:06:05.775Z,7
2022-12-23T04:07:06.267Z,7
2022-12-23T04:08:05.780Z,7.1
2022-12-23T04:09:06.421Z,7.2
2022-12-23T04:10:06.059Z,7.2
2022-12-23T04:11:05.750Z,7.1
2022-12-23T04:12:06.253Z,7.2
2022-12-23T04:13:05.759Z,7.1
2022-12-23T04:14:06.211Z,7.1
2022-12-23T04:15:15.389Z,7.1
2022-12-23T04:16:06.411Z,7.1
2022-12-23T04:17:05.822Z,7.1
2022-12-23T04:18:06.377Z,7.1
2022-12-23T04:19:06.071Z,7.1
2022-12-23T04:20:06.589Z,7.1
2022-12-23T04:21:05.680Z,7.1
2022-12-23T04:22:06.149Z,7.1
2022-12-23T04:23:06.102Z,7.1
2022-12-23T04:24:05.619Z,7.1
2022-12-23T04:25:06.146Z,7.1
2022-12-23T04:26:05.081Z,7
2022-12-23T04:27:05.671Z,7.1
2022-12-23T04:28:06.132Z,7.1
2022-12-23T04:29:06.215Z,7
2022-12-23T04:30:05.605Z,7.1
2022-12-23T04:31:06.083Z,7
2022-12-23T04:32:06.523Z,7
2022-12-23T04:33:06.099Z,7
2022-12-23T04:34:05.632Z,7
2022-12-23T04:35:06.171Z,7
2022-12-23T04:36:05.603Z,7
2022-12-23T04:37:05.828Z,7
2022-12-23T04:38:06.451Z,7.1
2022-12-23T04:39:04.703Z,7.1
2022-12-23T04:40:05.965Z,7
2022-12-23T04:41:06.020Z,7
2022-12-23T04:42:05.819Z,7
2022-12-23T04:43:05.979Z,7
2022-12-23T04:44:06.601Z,7
2022-12-23T04:45:05.907Z,7
2022-12-23T04:46:06.010Z,7
2022-12-23T04:47:06.732Z,7
2022-12-23T04:48:05.670Z,7
2022-12-23T04:49:06.415Z,7
2022-12-23T04:50:04.891Z,7
2022-12-23T04:51:05.552Z,7
2022-12-23T04:52:06.093Z,7
2022-12-23T04:53:05.563Z,7
2022-12-23T04:54:06.432Z,7
2022-12-23T04:55:05.997Z,7
2022-12-23T04:56:05.620Z,7
2022-12-23T04:57:06.114Z,7
2022-12-23T04:58:05.733Z,7
2022-12-23T04:59:06.478Z,7
2022-12-23T05:00:05.666Z,7
2022-12-23T05:01:06.176Z,7
2022-12-23T05:02:05.969Z,7
2022-12-23T05:03:06.121Z,7
2022-12-23T05:04:06.420Z,7
2022-12-23T05:05:06.190Z,7
2022-12-23T05:06:06.044Z,7
2022-12-23T05:07:06.127Z,7.1
2022-12-23T05:08:05.730Z,7.1
2022-12-23T05:09:05.988Z,7.1
2022-12-23T05:10:06.661Z,7.1
2022-12-23T05:11:05.762Z,7.1
2022-12-23T05:12:06.395Z,7.1
2022-12-23T05:13:06.492Z,7
2022-12-23T05:14:05.861Z,7.1
2022-12-23T05:15:04.968Z,7.1
2022-12-23T05:16:06.008Z,7.1
2022-12-23T05:17:11.573Z,7.1
2022-12-23T05:18:06.255Z,7.1
2022-12-23T05:19:05.767Z,7.1
2022-12-23T05:20:06.152Z,7.1
2022-12-23T05:21:05.638Z,7.2
2022-12-23T05:22:06.405Z,7.2
2022-12-23T05:23:05.792Z,7.2
2022-12-23T05:24:06.163Z,7.2
2022-12-23T05:25:05.814Z,7.2
2022-12-23T05:26:05.000Z,7.2
2022-12-23T05:27:05.098Z,7.2
2022-12-23T05:28:06.377Z,7
2022-12-23T05:29:06.090Z,7.2
2022-12-23T05:30:05.636Z,7.2
2022-12-23T05:31:05.933Z,7.2
2022-12-23T05:32:06.630Z,7.2
2022-12-23T05:33:06.028Z,7.2
2022-12-23T05:34:10.937Z,7.2
2022-12-23T05:35:06.460Z,7.3
2022-12-23T05:36:05.984Z,7.3
2022-12-23T05:37:06.486Z,7.3
2022-12-23T05:38:05.813Z,7.4
2022-12-23T05:39:05.678Z,7.4
2022-12-23T05:40:06.836Z,7.4
2022-12-23T05:41:05.913Z,7.4
2022-12-23T05:42:06.494Z,7.4
2022-12-23T05:43:06.256Z,7.4
2022-12-23T05:44:06.287Z,7.4
2022-12-23T05:45:05.807Z,8
2022-12-23T05:46:06.485Z,8
2022-12-23T05:47:05.866Z,7.4
2022-12-23T05:48:06.354Z,7.4
2022-12-23T05:49:05.940Z,7.5
2022-12-23T05:50:05.010Z,7.5
2022-12-23T05:51:05.609Z,7.5
2022-12-23T05:52:06.300Z,8
2022-12-23T05:53:05.774Z,7.5
2022-12-23T05:54:05.577Z,7.5
2022-12-23T05:55:06.152Z,7.5
2022-12-23T05:56:05.899Z,7.5
2022-12-23T05:57:06.561Z,7.6
2022-12-23T05:58:06.134Z,8
2022-12-23T05:59:05.908Z,7.6
2022-12-23T06:00:06.536Z,7.6
2022-12-23T06:01:06.340Z,7.6
2022-12-23T06:02:06.370Z,7.6
2022-12-23T06:03:07.056Z,7.6
2022-12-23T06:04:06.690Z,7.6
2022-12-23T06:05:05.771Z,7.6
2022-12-23T06:06:06.243Z,7.6
2022-12-23T06:07:05.719Z,7.6
2022-12-23T06:08:05.946Z,7.6
2022-12-23T06:09:06.443Z,8
2022-12-23T06:10:06.027Z,8
2022-12-23T06:11:06.481Z,7.8
2022-12-23T06:12:06.029Z,8
2022-12-23T06:13:05.757Z,7.9
2022-12-23T06:14:05.003Z,7.9
2022-12-23T06:15:05.004Z,7.9
2022-12-23T06:16:06.143Z,7.9
2022-12-23T06:17:05.847Z,8
2022-12-23T06:18:06.231Z,8
2022-12-23T06:19:05.852Z,8
2022-12-23T06:20:06.378Z,9
2022-12-23T06:21:05.916Z,9
2022-12-23T06:22:05.976Z,8
2022-12-23T06:23:06.450Z,8
2022-12-23T06:24:06.245Z,9
2022-12-23T06:25:05.561Z,8.1
2022-12-23T06:26:06.446Z,8.1
2022-12-23T06:27:05.967Z,8.1
2022-12-23T06:28:06.624Z,8.1
2022-12-23T06:29:05.861Z,8.1
2022-12-23T06:30:06.525Z,8.1
2022-12-23T06:31:06.532Z,8.1
2022-12-23T06:32:06.246Z,8.1
2022-12-23T06:33:06.274Z,8.1
2022-12-23T06:34:05.975Z,9
2022-12-23T06:35:05.838Z,8.1
2022-12-23T06:36:06.211Z,8.2
2022-12-23T06:37:05.994Z,8.2
2022-12-23T06:38:11.952Z,8.2
2022-12-23T06:39:06.545Z,8.2
2022-12-23T06:40:06.620Z,9
2022-12-23T06:41:06.308Z,8.2
2022-12-23T06:42:06.556Z,8.2
2022-12-23T06:43:06.052Z,8.2
2022-12-23T06:44:05.586Z,8.2
2022-12-23T06:45:06.300Z,8.3
2022-12-23T06:46:06.639Z,9
2022-12-23T06:47:06.031Z,8.4
2022-12-23T06:48:06.492Z,8.4
2022-12-23T06:49:12.984Z,8.4
2022-12-23T06:50:06.365Z,8.4
2022-12-23T06:51:06.010Z,8.4
2022-12-23T06:52:06.303Z,8.4
2022-12-23T06:53:06.406Z,8.4
2022-12-23T06:54:06.626Z,8.4
2022-12-23T06:55:06.336Z,8.4
2022-12-23T06:56:05.822Z,8.4
2022-12-23T06:57:06.451Z,8.4
2022-12-23T06:58:06.054Z,8.4
2022-12-23T06:59:05.558Z,8.4
2022-12-23T07:00:06.335Z,8.4
2022-12-23T07:01:05.762Z,8.4
2022-12-23T07:02:07.031Z,8.5
2022-12-23T07:03:06.819Z,8.5
2022-12-23T07:04:06.512Z,8.5
2022-12-23T07:05:06.581Z,8.5
2022-12-23T07:06:06.149Z,8.5
2022-12-23T07:07:06.602Z,8.5
2022-12-23T07:08:06.112Z,8.5
2022-12-23T07:09:05.811Z,8.5
2022-12-23T07:10:06.336Z,8.4
2022-12-23T07:11:05.927Z,8.5
2022-12-23T07:12:05.977Z,8.4
2022-12-23T07:13:04.891Z,9
2022-12-23T07:14:06.100Z,8.4
2022-12-23T07:15:06.051Z,8.4
2022-12-23T07:16:05.841Z,8.4
2022-12-23T07:17:06.738Z,8.4
2022-12-23T07:18:05.902Z,8.4
2022-12-23T07:19:06.398Z,9
2022-12-23T07:20:05.697Z,9
2022-12-23T07:21:07.888Z,8.4
2022-12-23T07:22:06.171Z,8.4
2022-12-23T07:23:05.824Z,8.4
2022-12-23T07:24:06.331Z,8.4
2022-12-23T07:25:05.866Z,9
2022-12-23T07:26:06.510Z,9
2022-12-23T07:27:06.607Z,9
2022-12-23T07:28:06.044Z,8.4
2022-12-23T07:29:05.676Z,8.4
2022-12-23T07:30:06.108Z,8.4
2022-12-23T07:31:06.121Z,9
2022-12-23T07:32:06.923Z,8.4
2022-12-23T07:33:06.134Z,8.4
2022-12-23T07:34:06.578Z,8.4
2022-12-23T07:35:06.285Z,8.4
2022-12-23T07:36:05.782Z,8.4
2022-12-23T07:37:06.387Z,8.5
2022-12-23T07:38:05.744Z,8.5
2022-12-23T07:39:06.349Z,9
2022-12-23T07:40:12.469Z,9
2022-12-23T07:41:06.094Z,8.5
2022-12-23T07:42:48.626Z,8.5
2022-12-23T07:43:05.634Z,9
2022-12-23T07:44:06.056Z,9
2022-12-23T07:45:06.671Z,9
2022-12-23T07:46:05.827Z,8.5
2022-12-23T07:47:06.165Z,8.5
2022-12-23T07:48:05.794Z,8.5
2022-12-23T07:49:04.962Z,8.5
2022-12-23T07:50:05.216Z,8.5
2022-12-23T07:51:05.765Z,8.5
2022-12-23T07:52:05.728Z,8.6
2022-12-23T07:53:06.016Z,8.5
2022-12-23T07:54:05.756Z,8.6
2022-12-23T07:55:06.155Z,8.6
2022-12-23T07:56:06.245Z,8.7
2022-12-23T07:57:06.100Z,8.7
2022-12-23T07:58:05.603Z,9
2022-12-23T07:59:06.102Z,8.7
2022-12-23T08:00:05.786Z,8.7
2022-12-23T08:01:05.388Z,8.7
2022-12-23T08:02:05.598Z,9
2022-12-23T08:03:06.346Z,8.8
2022-12-23T08:04:05.888Z,8.8
2022-12-23T08:05:06.653Z,8.8
2022-12-23T08:06:06.023Z,8.8
2022-12-23T08:07:06.250Z,9
2022-12-23T08:08:05.835Z,8.8
2022-12-23T08:09:06.327Z,8.9
2022-12-23T08:10:06.541Z,8.8
2022-12-23T08:11:06.062Z,8.9
2022-12-23T08:12:05.657Z,8.8
2022-12-23T08:13:06.204Z,8.8
2022-12-23T08:14:06.230Z,8.8
2022-12-23T08:15:05.853Z,8.9
2022-12-23T08:16:06.758Z,8.9
2022-12-23T08:17:06.514Z,8.9
2022-12-23T08:18:05.734Z,8.9
2022-12-23T08:19:06.141Z,8.9
2022-12-23T08:20:05.651Z,8.9
2022-12-23T08:21:06.147Z,8.9
2022-12-23T08:22:05.647Z,8.9
2022-12-23T08:23:05.918Z,8.9
2022-12-23T08:24:06.194Z,8.9
2022-12-23T08:25:06.291Z,8.9
2022-12-23T08:26:06.224Z,8.9
2022-12-23T08:27:04.689Z,8.9
2022-12-23T08:28:06.118Z,8.9
2022-12-23T08:29:06.262Z,9
2022-12-23T08:30:05.798Z,9
2022-12-23T08:31:06.424Z,9
2022-12-23T08:32:06.153Z,9
2022-12-23T08:33:05.632Z,9.1
2022-12-23T08:34:06.368Z,9.1
2022-12-23T08:35:05.838Z,9.2
2022-12-23T08:36:06.451Z,9.3
2022-12-23T08:37:04.990Z,9.3
2022-12-23T08:38:05.389Z,9.4
2022-12-23T08:39:06.116Z,9.3
2022-12-23T08:40:06.223Z,9.4
2022-12-23T08:41:06.604Z,9
2022-12-23T08:42:06.398Z,9.5
2022-12-23T08:43:05.916Z,9.5
2022-12-23T08:44:06.515Z,9.5
2022-12-23T08:45:06.114Z,9.5
2022-12-23T08:46:06.270Z,9.5
2022-12-23T08:47:06.628Z,9.5
2022-12-23T08:48:06.030Z,9.6
2022-12-23T08:49:05.610Z,9.6
2022-12-23T08:50:06.006Z,9.6
2022-12-23T08:51:06.310Z,9.6
2022-12-23T08:52:05.748Z,9.6
2022-12-23T08:53:06.140Z,9.6
2022-12-23T08:54:06.023Z,9.5
2022-12-23T08:55:06.053Z,9.6
2022-12-23T08:56:05.582Z,10
2022-12-23T08:57:06.253Z,10
2022-12-23T08:58:06.023Z,9.6
2022-12-23T08:59:05.628Z,9.6
2022-12-23T09:00:06.261Z,9.6
2022-12-23T09:01:05.658Z,9.7
2022-12-23T09:02:06.669Z,9.7
2022-12-23T09:03:06.731Z,9.7
2022-12-23T09:04:05.935Z,9.8
2022-12-23T09:05:06.182Z,10
2022-12-23T09:06:05.736Z,10
2022-12-23T09:07:06.308Z,9.8
2022-12-23T09:08:06.591Z,9.8
2022-12-23T09:09:06.201Z,9.9
2022-12-23T09:10:05.676Z,9.9
2022-12-23T09:11:06.199Z,9.9
2022-12-23T09:12:06.233Z,9.9
2022-12-23T09:13:05.667Z,9.9
2022-12-23T09:14:05.413Z,9.9
2022-12-23T09:15:05.079Z,9.9
2022-12-23T09:16:05.831Z,9.9
2022-12-23T09:17:06.260Z,9.9
2022-12-23T09:18:05.745Z,9.8
2022-12-23T09:19:06.176Z,10
2022-12-23T09:20:05.793Z,10
2022-12-23T09:21:06.387Z,10
2022-12-23T09:22:06.034Z,10
2022-12-23T09:23:05.644Z,9.9
2022-12-23T09:24:06.020Z,9.9
2022-12-23T09:25:09.553Z,9.9
2022-12-23T09:26:05.725Z,9.9
2022-12-23T09:27:04.571Z,9.9
2022-12-23T09:28:06.006Z,10
2022-12-23T09:29:06.472Z,9.9
2022-12-23T09:30:06.007Z,9.9
2022-12-23T09:31:06.093Z,10
2022-12-23T09:32:05.998Z,9.9
2022-12-23T09:33:06.460Z,9.9
2022-12-23T09:34:05.963Z,9.9
2022-12-23T09:35:06.506Z,9.8
2022-12-23T09:36:06.233Z,9.9
2022-12-23T09:37:05.552Z,9.9
2022-12-23T09:38:04.865Z,9.9
2022-12-23T09:39:06.651Z,9.9
2022-12-23T09:40:06.180Z,10
2022-12-23T09:41:05.802Z,10
2022-12-23T09:42:06.134Z,9.8
2022-12-23T09:43:06.461Z,9.9
2022-12-23T09:44:05.901Z,10
2022-12-23T09:45:06.087Z,9.9
2022-12-23T09:46:06.629Z,9.9
2022-12-23T09:47:06.308Z,9.9
2022-12-23T09:48:05.721Z,10
2022-12-23T09:49:06.162Z,9.9
2022-12-23T09:50:05.743Z,10
2022-12-23T09:51:05.762Z,10
2022-12-23T09:52:05.945Z,9.9
2022-12-23T09:53:05.541Z,10
2022-12-23T09:54:06.016Z,10
2022-12-23T09:55:05.611Z,10
2022-12-23T09:56:06.452Z,10
2022-12-23T09:57:05.854Z,10
2022-12-23T09:58:06.293Z,10
2022-12-23T09:59:05.951Z,10
2022-12-23T10:00:06.551Z,10.1
2022-12-23T10:01:06.526Z,10.1
2022-12-23T10:02:06.445Z,10.1
2022-12-23T10:03:06.928Z,10.2
2022-12-23T10:04:05.802Z,10.2
2022-12-23T10:05:06.183Z,10.2
2022-12-23T10:06:06.522Z,10.1
2022-12-23T10:07:07.451Z,10.2
2022-12-23T10:08:06.098Z,10.2
2022-12-23T10:09:05.777Z,10.2
2022-12-23T10:10:05.673Z,10.2
2022-12-23T10:11:06.257Z,10.2
2022-12-23T10:12:05.902Z,10
2022-12-23T10:13:06.226Z,10
2022-12-23T10:14:05.717Z,10
2022-12-23T10:15:05.572Z,10.3
2022-12-23T10:16:06.279Z,10.3
2022-12-23T10:17:05.785Z,10.3
2022-12-23T10:18:06.403Z,10
2022-12-23T10:19:05.998Z,10
2022-12-23T10:20:06.225Z,10.4
2022-12-23T10:21:05.592Z,10.4
2022-12-23T10:22:06.186Z,10.4
2022-12-23T10:23:05.723Z,10.3
2022-12-23T10:24:06.336Z,10.4
2022-12-23T10:25:05.914Z,10.4
2022-12-23T10:26:04.852Z,10.4
2022-12-23T10:27:05.917Z,10.4
2022-12-23T10:28:06.280Z,10.4
2022-12-23T10:29:06.379Z,10.4
2022-12-23T10:31:44.261Z,10.4
2022-12-23T10:33:05.786Z,10.4
2022-12-23T10:34:06.564Z,10.4
2022-12-23T10:35:06.141Z,10.4
2022-12-23T10:36:05.936Z,10.5
2022-12-23T10:37:06.739Z,10.5
2022-12-23T10:38:05.815Z,10.5
2022-12-23T10:39:06.037Z,10.5
2022-12-23T10:40:05.790Z,10.5
2022-12-23T10:41:12.025Z,10.6
2022-12-23T10:42:05.610Z,10.6
2022-12-23T10:43:06.170Z,10.6
2022-12-23T10:44:05.787Z,10.6
2022-12-23T10:45:06.362Z,10.6
2022-12-23T10:46:06.061Z,10.7
2022-12-23T10:47:05.949Z,10.7
2022-12-23T10:48:13.850Z,10.7
2022-12-23T10:49:05.786Z,10.7
2022-12-23T10:50:06.200Z,10.7
2022-12-23T10:51:06.571Z,10.7
2022-12-23T10:52:06.224Z,10.7
2022-12-23T10:53:06.010Z,10.7
2022-12-23T10:54:05.823Z,10.7
2022-12-23T10:55:06.165Z,10.7
2022-12-23T10:56:05.725Z,10.7
2022-12-23T10:57:06.094Z,10.8
2022-12-23T10:58:06.249Z,10.8
2022-12-23T10:59:05.687Z,10.8
2022-12-23T11:00:06.041Z,10.8
2022-12-23T11:01:18.798Z,10.8
2022-12-23T11:02:05.801Z,10.8
2022-12-23T11:03:06.065Z,10.8
2022-12-23T11:04:05.623Z,10.8
2022-12-23T11:05:05.950Z,10.8
2022-12-23T11:06:06.503Z,10.9
2022-12-23T11:07:48.105Z,10.9
2022-12-23T11:08:06.104Z,10.9
2022-12-23T11:09:05.702Z,11
2022-12-23T11:10:06.277Z,11
2022-12-23T11:11:05.864Z,11
2022-12-23T11:12:06.392Z,11
2022-12-23T11:13:05.858Z,11
2022-12-23T11:14:06.456Z,11
2022-12-23T11:15:06.388Z,11
2022-12-23T11:16:05.752Z,11
2022-12-23T11:17:06.055Z,11
2022-12-23T11:18:05.788Z,10.9
2022-12-23T11:19:05.704Z,10.9
2022-12-23T11:20:06.158Z,10.8
2022-12-23T11:21:05.750Z,10.8
2022-12-23T11:22:05.808Z,10.8
2022-12-23T11:23:06.726Z,10.8
2022-12-23T11:24:06.079Z,10.8
2022-12-23T11:25:05.689Z,10.8
2022-12-23T11:26:06.169Z,10.8
2022-12-23T11:27:05.766Z,10.8
2022-12-23T11:28:06.655Z,10.8
2022-12-23T11:29:06.139Z,10.8
2022-12-23T11:30:06.308Z,10.8
2022-12-23T11:31:06.131Z,10.7
2022-12-23T11:32:06.811Z,10.7
2022-12-23T11:33:06.121Z,10.7
2022-12-23T11:34:06.183Z,10.7
2022-12-23T11:35:06.067Z,10.6
2022-12-23T11:36:06.092Z,10.6
2022-12-23T11:37:11.337Z,10.6
2022-12-23T11:38:05.511Z,10.6
2022-12-23T11:39:05.196Z,10.6
2022-12-23T11:40:05.576Z,10.6
2022-12-23T11:41:06.471Z,10.6
2022-12-23T11:42:06.029Z,10.7
2022-12-23T11:43:06.105Z,10.7
2022-12-23T11:44:05.664Z,10.6
2022-12-23T11:45:05.825Z,10.6
2022-12-23T11:46:06.005Z,10.7
2022-12-23T11:47:06.362Z,10.7
2022-12-23T11:48:05.747Z,10.7
2022-12-23T11:49:06.549Z,11
2022-12-23T11:50:05.939Z,11
2022-12-23T11:51:06.176Z,10.7
2022-12-23T11:52:05.709Z,10.8
2022-12-23T11:53:06.220Z,10.7
2022-12-23T11:54:05.844Z,10.7
2022-12-23T11:55:06.380Z,10.7
2022-12-23T11:56:05.969Z,10.7
2022-12-23T11:57:06.779Z,10.7
2022-12-23T11:58:06.070Z,10.7
2022-12-23T11:59:06.568Z,10.7
2022-12-23T12:00:06.074Z,10.7
2022-12-23T12:01:05.868Z,10.7
2022-12-23T12:02:06.412Z,10.7
2022-12-23T12:03:05.185Z,10.7
2022-12-23T12:04:06.029Z,11
2022-12-23T12:05:06.524Z,10.7
2022-12-23T12:06:06.061Z,10.7
2022-12-23T12:07:06.175Z,10.7
2022-12-23T12:08:05.677Z,10.7
2022-12-23T12:09:05.897Z,10.7
2022-12-23T12:10:06.449Z,10.7
2022-12-23T12:11:06.396Z,10.8
2022-12-23T12:12:05.890Z,10.8
2022-12-23T12:13:06.110Z,10.8
2022-12-23T12:14:05.677Z,10.7
2022-12-23T12:15:06.217Z,10.8
2022-12-23T12:16:06.145Z,11
2022-12-23T12:17:06.759Z,10.8
2022-12-23T12:18:06.219Z,10.8
2022-12-23T12:19:06.245Z,10.8
2022-12-23T12:20:05.969Z,10.8
2022-12-23T12:21:06.360Z,10.8
2022-12-23T12:22:05.856Z,10.8
2022-12-23T12:23:06.575Z,10.8
2022-12-23T12:24:22.464Z,11
2022-12-23T12:25:06.007Z,10.8
2022-12-23T12:26:05.667Z,10.8
2022-12-23T12:27:06.306Z,11
2022-12-23T12:28:04.842Z,10.8
2022-12-23T12:29:06.430Z,10.7
2022-12-23T12:30:12.291Z,10.7
2022-12-23T12:31:05.983Z,11
2022-12-23T12:32:06.246Z,10.8
2022-12-23T12:33:05.972Z,10.8
2022-12-23T12:34:05.985Z,10.7
2022-12-23T12:35:06.236Z,11
2022-12-23T12:36:09.794Z,11
2022-12-23T12:37:06.384Z,10.8
2022-12-23T12:38:05.796Z,11
2022-12-23T12:39:05.221Z,10.8
2022-12-23T12:40:05.769Z,10.8
2022-12-23T12:41:06.245Z,10.8
2022-12-23T12:42:09.703Z,10.8
2022-12-23T12:43:05.864Z,10.8
2022-12-23T12:44:06.377Z,10.8
2022-12-23T12:45:05.926Z,10.8
2022-12-23T12:46:06.276Z,10.8
2022-12-23T12:47:53.659Z,10.8
2022-12-23T12:48:20.760Z,10.8
2022-12-23T12:49:06.556Z,10.8
2022-12-23T12:50:05.528Z,10.8
2022-12-23T12:51:06.089Z,10.8
2022-12-23T12:52:05.865Z,10.8
2022-12-23T12:53:06.260Z,10.8
2022-12-23T12:54:10.011Z,10.8
2022-12-23T12:55:05.954Z,10.8
2022-12-23T12:56:06.437Z,10.8
2022-12-23T12:57:06.265Z,11
2022-12-23T12:58:06.053Z,10.8
2022-12-23T12:59:06.525Z,10.8
2022-12-23T13:00:13.952Z,10.8
2022-12-23T13:01:06.660Z,11
2022-12-23T13:02:06.285Z,10.8
2022-12-23T13:03:06.308Z,10.8
2022-12-23T13:04:05.640Z,10.8
2022-12-23T13:05:06.343Z,10.8
2022-12-23T13:06:05.849Z,10.8
2022-12-23T13:07:06.328Z,10.8
2022-12-23T13:08:05.877Z,10.8
2022-12-23T13:09:06.312Z,10.8
2022-12-23T13:10:05.822Z,10.8
2022-12-23T13:11:06.196Z,10.8
2022-12-23T13:12:05.616Z,11
2022-12-23T13:13:06.049Z,10.8
2022-12-23T13:14:06.341Z,10.8
2022-12-23T13:15:05.864Z,11
2022-12-23T13:16:06.362Z,10.8
2022-12-23T13:17:06.135Z,11
2022-12-23T13:18:07.969Z,11
2022-12-23T13:19:05.769Z,11
2022-12-23T13:20:06.417Z,10.7
2022-12-23T13:21:06.405Z,10.8
2022-12-23T13:22:05.942Z,11
2022-12-23T13:23:44.754Z,10.7
2022-12-23T13:24:08.374Z,11
2022-12-23T13:25:06.004Z,10.8
2022-12-23T13:26:05.334Z,10.7
2022-12-23T13:27:04.795Z,10.8
2022-12-23T13:28:05.253Z,10.7
2022-12-23T13:29:05.795Z,10.8
2022-12-23T13:30:06.370Z,10.7
2022-12-23T13:31:06.484Z,10.7
2022-12-23T13:32:05.846Z,10.7
2022-12-23T13:33:06.334Z,10.7
2022-12-23T13:34:05.981Z,10.7
2022-12-23T13:35:06.499Z,11
2022-12-23T13:36:10.427Z,10.7
2022-12-23T13:37:05.869Z,10.7
2022-12-23T13:38:05.904Z,10.7
2022-12-23T13:39:06.343Z,10.7
2022-12-23T13:40:06.023Z,10.7
2022-12-23T13:41:06.663Z,10.7
2022-12-23T13:42:10.094Z,10.7
2022-12-23T13:43:06.255Z,10.7
2022-12-23T13:44:06.175Z,10.7
2022-12-23T13:45:05.758Z,10.7
2022-12-23T13:46:05.752Z,10.6
2022-12-23T13:47:06.104Z,10.6
2022-12-23T13:48:09.541Z,10.6
2022-12-23T13:49:05.836Z,10.6
2022-12-23T13:50:05.623Z,10.6
2022-12-23T13:51:05.841Z,10.6
2022-12-23T13:52:05.698Z,11
2022-12-23T13:53:06.165Z,11
2022-12-23T13:54:09.196Z,10.6